Mendon, MA

11:12 AM EDT on October 01, 2016 (GMT -0400)
North Ave | | Change Station

Elev 503 ft 42.13 °N, 71.57 °W | Updated 4 seconds ago

Light Rain
Light Rain Mist
54.9 °F
Feels Like 54.9 °F
N
4.0
Wind Variable Wind from WNW
Gusts 6.0 mph

Today
High -- | Low -- °F
--% Chance of Precip.
Yesterday
High -- | Low -- °F
Precip. -- in
Pressure 30.33 in
Visibility 2.5 miles
Clouds Overcast 300 ft
Dew Point 53 °F
Humidity 93%
Rainfall 0.83 in
Snow Depth Not available.
6:43 AM 6:27 PM
New Moon, 0% visible
METAR KSFZ 011456Z AUTO 05008KT 2 1/2SM -RA BR OVC003 14/13 A3027 RMK AO2 VIS 2 1/2V4 RAB07 SLP269 P0001 60002 T01390133 58004
Pressure 30.33 in
Visibility 2.5 miles
Clouds Overcast 300 ft
Dew Point 53 °F
Humidity 93%
Rainfall 0.83 in
Snow Depth Not available.
6:43 AM 6:27 PM
New Moon, 0% visible
METAR KSFZ 011456Z AUTO 05008KT 2 1/2SM -RA BR OVC003 14/13 A3027 RMK AO2 VIS 2 1/2V4 RAB07 SLP269 P0001 60002 T01390133 58004

10-Day Weather Forecast

Almanac

Astronomy

Oct. 01, 2016 Rise Set
Actual Time
Civil Twilight
Nautical Twilight
Astronomical Twilight
Moon
Length of Visible Light
Length of Day
Tomorrow will be .
, % of the Moon is Illuminated

Today's Extremes

State Highs State Lows

Community

WunderPhotos

Upload Photos

1,942,954 photos uploaded!

WunderBlog® & News

Nearby

Air Quality

  Air Quality AQ Index Pollutant
Not available.

Snow Depth

Station Depth Elevation

Earthquake Activity

City Distance Mag. Time & Date
Minimum magnitude displayed is 2.5.

Coastal Water Temperatures

Place Temperature

Stations

Nearby Weather Stations

Station Location Temp. Windchill Dew Point Humidity Wind Precip. Elev Updated Type
                   

Watches & Warnings

There are currently no watches in effect.